RYR4541 LIEE-ESGG
Flight info
| Callsign | RYR4541 |
|---|---|
| Flight time | N/A |
| Altitude | 36000 |
| Route | KOVAS DCT GIGGI DCT UPDUT DCT CORSI DCT OKROK DCT AKUTI DCT TORTU DCT ERTEV DCT PEPAG DCT ABESI DCT LOKTA DCT TEDGO DCT HAREM DCT LOHRE DCT BERXO DCT BAGOS DCT ROKAM L997 RISMA |
| Aircraft | B738/M-SDE3FGILRWY/SB1 |
Departure
| Time | 2026-04-28 09:44 |
|---|---|
| Airport | Cagliari Elmas Airport (LIEE) |
Arrival
| Time | N/A |
|---|---|
| Airport | Göteborg Landvetter Airport (ESGG) |
| Time | Latitude | Longitude | Altitude | Speed | Heading |
|---|---|---|---|---|---|
| 2026-04-28 09:16 | 39.25151 | 9.06060 | 21 ft | 0 kts | 143° |
| 2026-04-28 09:34 | 39.25155 | 9.06057 | 21 ft | 2 kts | 144° |
| 2026-04-28 09:35 | 39.25170 | 9.06044 | 21 ft | 2 kts | 147° |
| 2026-04-28 09:35 | 39.25185 | 9.06033 | 21 ft | 3 kts | 162° |
| 2026-04-28 09:35 | 39.25203 | 9.06030 | 21 ft | 3 kts | 200° |
| 2026-04-28 09:35 | 39.25218 | 9.06043 | 21 ft | 3 kts | 231° |
| 2026-04-28 09:36 | 39.25228 | 9.06060 | 21 ft | 1 kts | 232° |
| 2026-04-28 09:36 | 39.25231 | 9.06065 | 21 ft | 0 kts | 232° |
| 2026-04-28 09:38 | 39.25228 | 9.06060 | 21 ft | 2 kts | 232° |
| 2026-04-28 09:38 | 39.25213 | 9.06035 | 21 ft | 5 kts | 232° |
| 2026-04-28 09:39 | 39.25189 | 9.05996 | 21 ft | 5 kts | 232° |
| 2026-04-28 09:39 | 39.25169 | 9.05964 | 21 ft | 3 kts | 232° |
| 2026-04-28 09:39 | 39.25159 | 9.05946 | 21 ft | 2 kts | 232° |
| 2026-04-28 09:39 | 39.25146 | 9.05925 | 21 ft | 4 kts | 236° |
| 2026-04-28 09:40 | 39.25147 | 9.05887 | 21 ft | 6 kts | 302° |
| 2026-04-28 09:40 | 39.25180 | 9.05839 | 21 ft | 9 kts | 319° |
| 2026-04-28 09:40 | 39.25234 | 9.05779 | 21 ft | 12 kts | 319° |
| 2026-04-28 09:40 | 39.25307 | 9.05702 | 21 ft | 15 kts | 321° |
| 2026-04-28 09:41 | 39.25385 | 9.05601 | 21 ft | 17 kts | 303° |
| 2026-04-28 09:41 | 39.25401 | 9.05447 | 21 ft | 18 kts | 277° |
| 2026-04-28 09:41 | 39.25478 | 9.05327 | 21 ft | 19 kts | 315° |
| 2026-04-28 09:41 | 39.25581 | 9.05207 | 21 ft | 21 kts | 318° |
| 2026-04-28 09:42 | 39.25692 | 9.05074 | 21 ft | 23 kts | 318° |
| 2026-04-28 09:42 | 39.25817 | 9.04929 | 21 ft | 25 kts | 317° |
| 2026-04-28 09:42 | 39.25947 | 9.04773 | 21 ft | 26 kts | 317° |
| 2026-04-28 09:42 | 39.26087 | 9.04613 | 21 ft | 27 kts | 317° |
| 2026-04-28 09:43 | 39.26113 | 9.04401 | 21 ft | 24 kts | 209° |
| 2026-04-28 09:43 | 39.25900 | 9.04558 | 21 ft | 68 kts | 137° |
| 2026-04-28 09:43 | 39.25371 | 9.05166 | 21 ft | 133 kts | 138° |
| 2026-04-28 09:43 | 39.24584 | 9.06095 | 321 ft | 163 kts | 138° |
| 2026-04-28 09:44 | 39.23775 | 9.07130 | 1146 ft | 163 kts | 140° |
| 2026-04-28 09:44 | 39.22918 | 9.08111 | 1918 ft | 168 kts | 141° |
| 2026-04-28 09:44 | 39.21978 | 9.09179 | 2405 ft | 190 kts | 140° |
| 2026-04-28 09:44 | 39.20916 | 9.10385 | 2757 ft | 216 kts | 139° |
| 2026-04-28 09:45 | 39.19688 | 9.11565 | 3483 ft | 222 kts | 155° |
| 2026-04-28 09:45 | 39.18165 | 9.11895 | 4348 ft | 228 kts | 184° |
| 2026-04-28 09:45 | 39.16648 | 9.11197 | 5230 ft | 233 kts | 210° |
| 2026-04-28 09:45 | 39.15358 | 9.09877 | 6113 ft | 236 kts | 220° |
| 2026-04-28 09:46 | 39.14245 | 9.08296 | 6943 ft | 242 kts | 237° |
| 2026-04-28 09:46 | 39.13818 | 9.06948 | 7488 ft | 245 kts | 255° |
| 2026-04-28 09:46 | 39.14034 | 9.03962 | 8581 ft | 255 kts | 291° |
| 2026-04-28 09:46 | 39.15081 | 9.02041 | 9075 ft | 275 kts | 315° |
| 2026-04-28 09:47 | 39.16133 | 9.00947 | 9415 ft | 287 kts | 322° |
| 2026-04-28 09:47 | 39.17779 | 8.99383 | 10141 ft | 293 kts | 320° |
| 2026-04-28 09:47 | 39.19389 | 8.97659 | 10854 ft | 301 kts | 317° |
| 2026-04-28 09:47 | 39.20920 | 8.95897 | 11494 ft | 309 kts | 316° |
| 2026-04-28 09:48 | 39.22742 | 8.94243 | 12317 ft | 314 kts | 332° |
| 2026-04-28 09:48 | 39.24869 | 8.93382 | 13092 ft | 320 kts | 348° |
| 2026-04-28 09:48 | 39.27089 | 8.92983 | 13861 ft | 324 kts | 352° |
| 2026-04-28 09:48 | 39.29346 | 8.92714 | 14610 ft | 327 kts | 355° |
| 2026-04-28 09:49 | 39.31621 | 8.92537 | 15343 ft | 331 kts | 355° |
| 2026-04-28 09:49 | 39.33889 | 8.92370 | 16043 ft | 334 kts | 356° |
| 2026-04-28 09:49 | 39.36029 | 8.92213 | 16704 ft | 336 kts | 354° |
| 2026-04-28 09:49 | 39.38526 | 8.92031 | 17475 ft | 338 kts | 355° |
| 2026-04-28 09:50 | 39.40745 | 8.91899 | 18083 ft | 342 kts | 360° |
| 2026-04-28 09:50 | 39.43150 | 8.92302 | 18762 ft | 345 kts | 14° |
| 2026-04-28 09:50 | 39.44728 | 8.92975 | 19213 ft | 348 kts | 21° |
| 2026-04-28 09:50 | 39.46890 | 8.94291 | 19824 ft | 351 kts | 27° |
| 2026-04-28 09:51 | 39.49114 | 8.95878 | 20466 ft | 355 kts | 29° |
| 2026-04-28 09:51 | 39.51263 | 8.97468 | 21078 ft | 358 kts | 28° |
| 2026-04-28 09:51 | 39.53441 | 8.99061 | 21673 ft | 361 kts | 28° |
| 2026-04-28 09:51 | 39.55638 | 9.00654 | 22259 ft | 363 kts | 28° |
| 2026-04-28 09:52 | 39.57851 | 9.02251 | 22818 ft | 366 kts | 28° |
| 2026-04-28 09:52 | 39.60088 | 9.03858 | 23376 ft | 368 kts | 28° |
| 2026-04-28 09:52 | 39.62347 | 9.05428 | 23921 ft | 370 kts | 24° |
| 2026-04-28 09:52 | 39.64768 | 9.06639 | 24411 ft | 373 kts | 15° |
| 2026-04-28 09:53 | 39.67266 | 9.07394 | 24906 ft | 375 kts | 9° |
| 2026-04-28 09:53 | 39.69892 | 9.07906 | 25407 ft | 377 kts | 6° |
| 2026-04-28 09:53 | 39.72503 | 9.08305 | 25881 ft | 380 kts | 5° |
| 2026-04-28 09:53 | 39.75144 | 9.08693 | 26342 ft | 383 kts | 5° |
| 2026-04-28 09:54 | 39.77795 | 9.09085 | 26806 ft | 385 kts | 5° |
| 2026-04-28 09:54 | 39.80466 | 9.09481 | 27249 ft | 388 kts | 5° |
| 2026-04-28 09:54 | 39.83151 | 9.09881 | 27680 ft | 390 kts | 5° |
| 2026-04-28 09:54 | 39.85857 | 9.10285 | 28110 ft | 392 kts | 5° |
| 2026-04-28 09:55 | 39.88580 | 9.10692 | 28520 ft | 395 kts | 4° |
| 2026-04-28 09:55 | 39.91317 | 9.11103 | 28919 ft | 397 kts | 4° |
| 2026-04-28 09:55 | 39.94066 | 9.11514 | 29314 ft | 399 kts | 4° |
| 2026-04-28 09:55 | 39.96834 | 9.11925 | 29691 ft | 401 kts | 4° |
| 2026-04-28 09:56 | 39.99615 | 9.12341 | 30044 ft | 404 kts | 4° |
| 2026-04-28 09:56 | 40.02415 | 9.12761 | 30437 ft | 405 kts | 4° |
| 2026-04-28 09:56 | 40.05218 | 9.13183 | 30790 ft | 407 kts | 4° |
| 2026-04-28 09:56 | 40.08042 | 9.13609 | 31108 ft | 410 kts | 4° |
| 2026-04-28 09:57 | 40.10918 | 9.14044 | 31438 ft | 412 kts | 4° |
| 2026-04-28 09:57 | 40.13765 | 9.14475 | 31761 ft | 414 kts | 4° |
| 2026-04-28 09:57 | 40.16634 | 9.14910 | 32068 ft | 416 kts | 4° |
| 2026-04-28 09:57 | 40.19517 | 9.15347 | 32360 ft | 418 kts | 4° |
| 2026-04-28 09:58 | 40.22414 | 9.15736 | 32644 ft | 419 kts | 0° |
| 2026-04-28 09:58 | 40.25326 | 9.15739 | 32926 ft | 418 kts | 354° |
| 2026-04-28 09:58 | 40.28209 | 9.15297 | 33208 ft | 418 kts | 347° |
| 2026-04-28 09:58 | 40.31062 | 9.14567 | 33479 ft | 419 kts | 345° |
| 2026-04-28 09:59 | 40.33909 | 9.13715 | 33753 ft | 420 kts | 344° |
| 2026-04-28 09:59 | 40.36757 | 9.12836 | 34016 ft | 422 kts | 344° |
| 2026-04-28 09:59 | 40.39614 | 9.11948 | 34252 ft | 424 kts | 344° |
| 2026-04-28 09:59 | 40.42488 | 9.11051 | 34504 ft | 425 kts | 343° |
| 2026-04-28 10:00 | 40.45377 | 9.10147 | 34726 ft | 427 kts | 343° |